Port Stanley — V7EE9 — position and weather

sailwx.info

Track history (hours):
 
Tides and Currents Weather Stations Pressure Air Temp Water Temp Dewpoint Dewpoint Depression Visibility Wind Speed Wind Dir Waves Ship Positions

Port Stanley

Last reported at 2017-Oct-31 22:14 UTC. Time now 2018-Jan-18 20:08 UTC.
Position N 24°23' E 118°42'.
Warning: this ship's position is months out of date.

Length 183 m; draft 11.5 m.

Type: Ship. MMSI: 538090299.

Date/timePositionNaut miles runAvg speedWind from/ knotsBaromVisibWave heightAir tempDewpointWater temp
2017-Oct-31 22:14N 24°23' E 118°42'2510.1
2017-Oct-31 19:46N 24°05' E 118°24'5 9.6
2017-Oct-31 19:13N 24°00' E 118°20'199 8.0
2017-Oct-30 18:13N 22°13' E 115°18'2 7.8
2017-Oct-30 17:55N 22°13' E 115°16'3 7.8
2017-Oct-30 17:29N 22°12' E 115°12'4 8.1
2017-Oct-30 17:00N 22°11' E 115°08'4 8.2
2017-Oct-30 16:29N 22°10' E 115°03'4 8.3
2017-Oct-30 16:00N 22°09' E 114°59'4 8.2
2017-Oct-30 15:29N 22°10' E 114°55'4 8.3
2017-Oct-30 15:00N 22°09' E 114°51'8 8.5
2017-Oct-30 14:00N 22°07' E 114°42'5 9.0
2017-Oct-30 13:30N 22°07' E 114°37'4 8.8
2017-Oct-30 13:00N 22°07' E 114°32'4 8.8
2017-Oct-30 12:30N 22°07' E 114°27'4 8.8
2017-Oct-30 12:00N 22°06' E 114°23'3 0.7
2017-Oct-30 07:21N 22°05' E 114°19'3 7.5
2017-Oct-30 07:00N 22°04' E 114°22'4 7.5
2017-Oct-30 06:26N 22°00' E 114°24'3 7.3
2017-Oct-30 05:59N 21°57' E 114°25'3 6.9
2017-Oct-30 05:30N 21°54' E 114°25'5 6.5
2017-Oct-30 04:42N 21°48' E 114°25'2 6.3
2017-Oct-30 04:26N 21°47' E 114°25'7 0.2
2017-Oct-28 19:00N 21°51' E 114°30'4 7.5
2017-Oct-28 18:30N 21°54' E 114°28'4 7.5
2017-Oct-28 18:00N 21°57' E 114°26'4 7.5
2017-Oct-28 17:30N 22°01' E 114°24'4 7.5
2017-Oct-28 17:00N 22°04' E 114°22'3 0.1
2017-Oct-27 23:16N 22°05' E 114°19'310.9
2017-Oct-27 22:58N 22°04' E 114°23'510.9
2017-Oct-27 22:30N 22°04' E 114°28'611.1
2017-Oct-27 22:00N 22°05' E 114°34'510.6
2017-Oct-27 21:30N 22°05' E 114°40'611.0
2017-Oct-27 21:00N 22°05' E 114°46'611.1
2017-Oct-27 20:30N 22°05' E 114°52'611.2
2017-Oct-27 20:00N 22°08' E 114°57'811.2
2017-Oct-27 19:15N 22°10' E 115°06'311.4
2017-Oct-27 19:00N 22°11' E 115°09'  
Track history (hours):
 
Tides and Currents Weather Stations Pressure Air Temp Water Temp Dewpoint Dewpoint Depression Visibility Wind Speed Wind Dir Waves Ship Positions

Port Stanley

Last reported at 2017-Oct-31 22:14 UTC. Time now 2018-Jan-18 20:08 UTC.
Position N 24°23' E 118°42'.
Warning: this ship's position is months out of date.

Length 183 m; draft 11.5 m.

Type: Ship. MMSI: 538090299.

Date/timePositionNaut miles runAvg speedWind from/ knotsBaromVisibWave heightAir tempDewpointWater temp
2017-Oct-31 22:14N 24°23' E 118°42'2510.1
2017-Oct-31 19:46N 24°05' E 118°24'5 9.6
2017-Oct-31 19:13N 24°00' E 118°20'199 8.0
2017-Oct-30 18:13N 22°13' E 115°18'2 7.8
2017-Oct-30 17:55N 22°13' E 115°16'3 7.8
2017-Oct-30 17:29N 22°12' E 115°12'4 8.1
2017-Oct-30 17:00N 22°11' E 115°08'4 8.2
2017-Oct-30 16:29N 22°10' E 115°03'4 8.3
2017-Oct-30 16:00N 22°09' E 114°59'4 8.2
2017-Oct-30 15:29N 22°10' E 114°55'4 8.3
2017-Oct-30 15:00N 22°09' E 114°51'8 8.5
2017-Oct-30 14:00N 22°07' E 114°42'5 9.0
2017-Oct-30 13:30N 22°07' E 114°37'4 8.8
2017-Oct-30 13:00N 22°07' E 114°32'4 8.8
2017-Oct-30 12:30N 22°07' E 114°27'4 8.8
2017-Oct-30 12:00N 22°06' E 114°23'3 0.7
2017-Oct-30 07:21N 22°05' E 114°19'3 7.5
2017-Oct-30 07:00N 22°04' E 114°22'4 7.5
2017-Oct-30 06:26N 22°00' E 114°24'3 7.3
2017-Oct-30 05:59N 21°57' E 114°25'3 6.9
2017-Oct-30 05:30N 21°54' E 114°25'5 6.5
2017-Oct-30 04:42N 21°48' E 114°25'2 6.3
2017-Oct-30 04:26N 21°47' E 114°25'7 0.2
2017-Oct-28 19:00N 21°51' E 114°30'4 7.5
2017-Oct-28 18:30N 21°54' E 114°28'4 7.5
2017-Oct-28 18:00N 21°57' E 114°26'4 7.5
2017-Oct-28 17:30N 22°01' E 114°24'4 7.5
2017-Oct-28 17:00N 22°04' E 114°22'3 0.1
2017-Oct-27 23:16N 22°05' E 114°19'310.9
2017-Oct-27 22:58N 22°04' E 114°23'510.9
2017-Oct-27 22:30N 22°04' E 114°28'611.1
2017-Oct-27 22:00N 22°05' E 114°34'510.6
2017-Oct-27 21:30N 22°05' E 114°40'611.0
2017-Oct-27 21:00N 22°05' E 114°46'611.1
2017-Oct-27 20:30N 22°05' E 114°52'611.2
2017-Oct-27 20:00N 22°08' E 114°57'811.2
2017-Oct-27 19:15N 22°10' E 115°06'311.4
2017-Oct-27 19:00N 22°11' E 115°09'  

Dump ship's entire track history